createdAt,value
2018-11-07T00:00:21.106Z,1001.79
2018-11-07T00:01:21.099Z,1001.81
2018-11-07T00:02:21.056Z,1001.89
2018-11-07T00:03:21.038Z,1001.85
2018-11-07T00:04:21.018Z,1001.92
2018-11-07T00:05:21.076Z,1001.86
2018-11-07T00:06:20.974Z,1001.84
2018-11-07T00:07:20.960Z,1001.87
2018-11-07T00:08:21.125Z,1001.90
2018-11-07T00:09:20.911Z,1001.94
2018-11-07T00:10:20.899Z,1001.95
2018-11-07T00:11:20.880Z,1001.91
2018-11-07T00:12:20.851Z,1001.94
2018-11-07T00:13:20.830Z,1001.93
2018-11-07T00:14:20.809Z,1001.92
2018-11-07T00:15:20.792Z,1001.94
2018-11-07T00:16:20.769Z,1001.96
2018-11-07T00:17:20.806Z,1001.92
2018-11-07T00:18:20.728Z,1001.93
2018-11-07T00:19:20.715Z,1001.92
2018-11-07T00:20:20.702Z,1001.88
2018-11-07T00:21:20.668Z,1001.92
2018-11-07T00:22:20.647Z,1001.88
2018-11-07T00:23:20.689Z,1001.90
2018-11-07T00:24:20.607Z,1001.96
2018-11-07T00:25:20.589Z,1001.95
2018-11-07T00:26:20.579Z,1001.94
2018-11-07T00:27:20.543Z,1001.89
2018-11-07T00:28:20.524Z,1001.93
2018-11-07T00:29:20.503Z,1001.90
2018-11-07T00:30:20.622Z,1001.93
2018-11-07T00:31:20.464Z,1001.92
2018-11-07T00:32:20.443Z,1001.95
2018-11-07T00:33:20.430Z,1001.95
2018-11-07T00:34:20.400Z,1001.97
2018-11-07T00:35:20.379Z,1001.98
2018-11-07T00:36:20.368Z,1001.95
2018-11-07T00:37:20.337Z,1001.97
2018-11-07T00:38:20.318Z,1001.88
2018-11-07T00:39:20.297Z,1001.91
2018-11-07T00:40:20.285Z,1001.92
2018-11-07T00:41:20.317Z,1001.94
2018-11-07T00:42:20.261Z,1001.91
2018-11-07T00:43:20.217Z,1001.94
2018-11-07T00:44:20.339Z,1001.90
2018-11-07T00:45:20.173Z,1001.96
2018-11-07T00:46:20.153Z,1001.95
2018-11-07T00:47:20.148Z,1001.96
2018-11-07T00:48:20.120Z,1001.96
2018-11-07T00:49:20.092Z,1001.94
2018-11-07T00:50:20.080Z,1001.93
2018-11-07T00:51:20.059Z,1001.93
2018-11-07T00:52:20.029Z,1001.93
2018-11-07T00:53:20.020Z,1001.97
2018-11-07T00:54:19.993Z,1001.96
2018-11-07T00:55:19.971Z,1002.01
2018-11-07T00:56:19.953Z,1001.99
2018-11-07T00:57:19.942Z,1001.99
2018-11-07T00:58:19.907Z,1001.98
2018-11-07T00:59:19.893Z,1001.96
2018-11-07T01:00:19.867Z,1001.97
2018-11-07T01:01:19.853Z,1002.01
2018-11-07T01:02:19.832Z,1001.95
2018-11-07T01:03:19.811Z,1001.91
2018-11-07T01:04:19.784Z,1001.91
2018-11-07T01:05:19.772Z,1001.92
2018-11-07T01:06:19.867Z,1001.97
2018-11-07T01:07:19.721Z,1002.00
2018-11-07T01:08:19.711Z,1002.06
2018-11-07T01:09:19.933Z,1002.02
2018-11-07T01:10:19.680Z,1002.03
2018-11-07T01:11:19.644Z,1002.04
2018-11-07T01:12:19.631Z,1002.02
2018-11-07T01:13:19.598Z,1002.03
2018-11-07T01:14:19.581Z,1002.05
2018-11-07T01:15:19.560Z,1002.07
2018-11-07T01:16:19.548Z,1002.04
2018-11-07T01:17:19.519Z,1002.04
2018-11-07T01:18:19.501Z,1002.05
2018-11-07T01:19:19.475Z,1002.05
2018-11-07T01:20:19.453Z,1002.11
2018-11-07T01:21:19.432Z,1002.12
2018-11-07T01:22:19.447Z,1002.12
2018-11-07T01:23:19.395Z,1002.10
2018-11-07T01:24:19.377Z,1002.06
2018-11-07T01:25:19.350Z,1001.99
2018-11-07T01:26:19.328Z,1002.00
2018-11-07T01:27:19.322Z,1002.03
2018-11-07T01:28:19.403Z,1002.03
2018-11-07T01:29:19.267Z,1002.00
2018-11-07T01:30:19.245Z,1002.06
2018-11-07T01:31:19.288Z,1002.06
2018-11-07T01:32:19.207Z,1002.06
2018-11-07T01:33:19.184Z,1002.08
2018-11-07T01:34:19.162Z,1002.10
2018-11-07T01:35:19.143Z,1002.10
2018-11-07T01:36:19.276Z,1002.08
2018-11-07T01:37:19.100Z,1002.07
2018-11-07T01:38:19.081Z,1002.06
2018-11-07T01:39:19.061Z,1002.07
2018-11-07T01:40:19.038Z,1002.07
2018-11-07T01:41:19.019Z,1002.06
2018-11-07T01:42:18.997Z,1002.07
2018-11-07T01:43:18.989Z,1002.10
2018-11-07T01:44:18.963Z,1002.08
2018-11-07T01:45:18.944Z,1002.14
2018-11-07T01:46:18.920Z,1002.18
2018-11-07T01:47:18.914Z,1002.16
2018-11-07T01:48:18.877Z,1002.13
2018-11-07T01:49:18.853Z,1002.13
2018-11-07T01:50:18.832Z,1002.15
2018-11-07T01:51:18.836Z,1002.11
2018-11-07T01:52:18.792Z,1002.18
2018-11-07T01:53:18.770Z,1002.13
2018-11-07T01:54:18.758Z,1002.16
2018-11-07T01:55:18.730Z,1002.16
2018-11-07T01:56:18.717Z,1002.14
2018-11-07T01:57:18.695Z,1002.15
2018-11-07T01:58:18.823Z,1002.14
2018-11-07T01:59:18.647Z,1002.13
2018-11-07T02:00:18.636Z,1002.09
2018-11-07T02:01:18.679Z,1002.11
2018-11-07T02:02:18.590Z,1002.13
2018-11-07T02:03:18.566Z,1002.13
2018-11-07T02:04:18.544Z,1002.08
2018-11-07T02:05:18.523Z,1002.03
2018-11-07T02:06:18.506Z,1002.05
2018-11-07T02:07:18.481Z,1002.02
2018-11-07T02:08:18.461Z,1002.05
2018-11-07T02:09:18.439Z,1002.03
2018-11-07T02:10:18.426Z,1002.06
2018-11-07T02:11:18.399Z,1002.04
2018-11-07T02:12:18.378Z,1002.01
2018-11-07T02:13:18.356Z,1001.95
2018-11-07T02:14:18.335Z,1001.97
2018-11-07T02:15:18.316Z,1001.95
2018-11-07T02:16:18.296Z,1001.96
2018-11-07T02:17:18.438Z,1001.96
2018-11-07T02:18:18.256Z,1001.96
2018-11-07T02:19:18.237Z,1001.92
2018-11-07T02:20:18.219Z,1001.87
2018-11-07T02:21:18.199Z,1001.87
2018-11-07T02:22:18.170Z,1001.81
2018-11-07T02:23:18.150Z,1001.83
2018-11-07T02:24:18.135Z,1001.82
2018-11-07T02:25:18.108Z,1001.83
2018-11-07T02:26:18.179Z,1001.83
2018-11-07T02:27:18.066Z,1001.90
2018-11-07T02:28:18.116Z,1001.89
2018-11-07T02:29:18.024Z,1001.91
2018-11-07T02:30:18.015Z,1001.89
2018-11-07T02:31:18.036Z,1001.89
2018-11-07T02:32:17.963Z,1001.88
2018-11-07T02:33:17.945Z,1001.85
2018-11-07T02:34:17.922Z,1001.85
2018-11-07T02:35:17.904Z,1001.89
2018-11-07T02:36:17.881Z,1001.92
2018-11-07T02:37:17.860Z,1001.94
2018-11-07T02:38:17.838Z,1001.95
2018-11-07T02:39:17.818Z,1001.96
2018-11-07T02:40:17.799Z,1001.93
2018-11-07T02:41:17.776Z,1001.93
2018-11-07T02:42:17.756Z,1001.94
2018-11-07T02:43:17.734Z,1001.88
2018-11-07T02:44:17.717Z,1001.82
2018-11-07T02:45:17.701Z,1001.84
2018-11-07T02:46:17.676Z,1001.90
2018-11-07T02:47:17.796Z,1001.91
2018-11-07T02:48:17.635Z,1001.87
2018-11-07T02:49:17.612Z,1001.89
2018-11-07T02:50:17.703Z,1001.92
2018-11-07T02:51:17.577Z,1001.92
2018-11-07T02:52:17.553Z,1001.95
2018-11-07T02:53:17.640Z,1001.94
2018-11-07T02:54:17.508Z,1002.00
2018-11-07T02:55:17.495Z,1001.98
2018-11-07T02:56:17.469Z,1001.95
2018-11-07T02:57:17.441Z,1001.99
2018-11-07T02:58:17.441Z,1001.96
2018-11-07T02:59:17.403Z,1001.97
2018-11-07T03:00:17.388Z,1002.00
2018-11-07T03:01:17.427Z,1002.04
2018-11-07T03:02:17.340Z,1002.02
2018-11-07T03:03:17.333Z,1002.08
2018-11-07T03:04:17.296Z,1002.07
2018-11-07T03:05:17.289Z,1002.05
2018-11-07T03:06:17.255Z,1002.05
2018-11-07T03:07:17.240Z,1002.05
2018-11-07T03:08:17.219Z,1002.05
2018-11-07T03:09:17.191Z,1002.09
2018-11-07T03:10:17.173Z,1002.09
2018-11-07T03:11:17.152Z,1002.13
2018-11-07T03:12:17.133Z,1002.12
2018-11-07T03:13:17.112Z,1002.14
2018-11-07T03:14:17.092Z,1002.18
2018-11-07T03:15:17.096Z,1002.20
2018-11-07T03:16:17.048Z,1002.20
2018-11-07T03:17:17.033Z,1002.16
2018-11-07T03:18:17.013Z,1002.15
2018-11-07T03:19:16.983Z,1002.18
2018-11-07T03:20:16.972Z,1002.26
2018-11-07T03:21:16.948Z,1002.26
2018-11-07T03:22:16.920Z,1002.31
2018-11-07T03:23:16.913Z,1002.33
2018-11-07T03:24:16.883Z,1002.37
2018-11-07T03:25:16.858Z,1002.37
2018-11-07T03:26:16.941Z,1002.38
2018-11-07T03:27:16.826Z,1002.42
2018-11-07T03:28:16.796Z,1002.38
2018-11-07T03:29:16.773Z,1002.43
2018-11-07T03:30:16.754Z,1002.38
2018-11-07T03:31:16.736Z,1002.35
2018-11-07T03:32:16.713Z,1002.31
2018-11-07T03:33:16.690Z,1002.32
2018-11-07T03:34:16.687Z,1002.31
2018-11-07T03:35:16.652Z,1002.29
2018-11-07T03:36:16.634Z,1002.28
2018-11-07T03:37:16.605Z,1002.28
2018-11-07T03:38:16.588Z,1002.29
2018-11-07T03:39:16.571Z,1002.27
2018-11-07T03:40:16.551Z,1002.31
2018-11-07T03:41:16.522Z,1002.25
2018-11-07T03:42:16.596Z,1002.25
2018-11-07T03:43:16.481Z,1002.17
2018-11-07T03:44:16.469Z,1002.15
2018-11-07T03:45:16.471Z,1002.17
2018-11-07T03:46:16.417Z,1002.15
2018-11-07T03:47:16.399Z,1002.15
2018-11-07T03:48:16.387Z,1002.19
2018-11-07T03:49:16.353Z,1002.21
2018-11-07T03:50:16.331Z,1002.20
2018-11-07T03:51:16.320Z,1002.21
2018-11-07T03:52:16.294Z,1002.19
2018-11-07T03:53:16.308Z,1002.17
2018-11-07T03:54:16.253Z,1002.16
2018-11-07T03:55:16.234Z,1002.12
2018-11-07T03:56:16.212Z,1002.18
2018-11-07T03:57:16.190Z,1002.24
2018-11-07T03:58:16.164Z,1002.24
2018-11-07T03:59:16.143Z,1002.22
2018-11-07T04:00:16.120Z,1002.26
2018-11-07T04:01:16.107Z,1002.28
2018-11-07T04:02:16.092Z,1002.25
2018-11-07T04:03:16.065Z,1002.30
2018-11-07T04:04:16.036Z,1002.31
2018-11-07T04:05:16.019Z,1002.32
2018-11-07T04:06:15.998Z,1002.29
2018-11-07T04:07:15.977Z,1002.31
2018-11-07T04:08:15.958Z,1002.34
2018-11-07T04:09:15.933Z,1002.31
2018-11-07T04:10:15.915Z,1002.35
2018-11-07T04:11:15.891Z,1002.33
2018-11-07T04:12:15.868Z,1002.35
2018-11-07T04:13:15.846Z,1002.39
2018-11-07T04:14:15.827Z,1002.40
2018-11-07T04:15:15.896Z,1002.45
2018-11-07T04:16:15.784Z,1002.42
2018-11-07T04:17:15.769Z,1002.46
2018-11-07T04:18:15.745Z,1002.41
2018-11-07T04:19:15.720Z,1002.41
2018-11-07T04:20:15.699Z,1002.42
2018-11-07T04:21:15.676Z,1002.41
2018-11-07T04:22:15.659Z,1002.43
2018-11-07T04:23:15.663Z,1002.43
2018-11-07T04:24:15.617Z,1002.39
2018-11-07T04:25:15.593Z,1002.39
2018-11-07T04:26:15.577Z,1002.38
2018-11-07T04:27:15.550Z,1002.35
2018-11-07T04:28:15.530Z,1002.40
2018-11-07T04:29:15.510Z,1002.38
2018-11-07T04:30:15.484Z,1002.33
2018-11-07T04:31:15.467Z,1002.28
2018-11-07T04:32:15.442Z,1002.26
2018-11-07T04:33:15.426Z,1002.28
2018-11-07T04:34:15.401Z,1002.26
2018-11-07T04:35:15.380Z,1002.25
2018-11-07T04:36:15.361Z,1002.30
2018-11-07T04:37:15.435Z,1002.32
2018-11-07T04:38:15.315Z,1002.26
2018-11-07T04:39:15.386Z,1002.24
2018-11-07T04:40:15.354Z,1002.24
2018-11-07T04:41:15.253Z,1002.22
2018-11-07T04:42:15.231Z,1002.12
2018-11-07T04:43:15.210Z,1002.09
2018-11-07T04:44:15.187Z,1002.12
2018-11-07T04:45:15.165Z,1002.16
2018-11-07T04:46:15.145Z,1002.16
2018-11-07T04:47:15.127Z,1002.21
2018-11-07T04:48:15.105Z,1002.24
2018-11-07T04:49:15.080Z,1002.24
2018-11-07T04:50:15.068Z,1002.23
2018-11-07T04:51:15.047Z,1002.18
2018-11-07T04:52:15.014Z,1002.15
2018-11-07T04:53:14.997Z,1002.11
2018-11-07T04:54:14.984Z,1002.07
2018-11-07T04:55:14.952Z,1002.09
2018-11-07T04:56:14.934Z,1002.08
2018-11-07T04:57:14.921Z,1002.05
2018-11-07T04:58:14.929Z,1002.06
2018-11-07T04:59:14.884Z,1002.10
2018-11-07T05:00:14.927Z,1002.16
2018-11-07T05:01:14.823Z,1002.14
2018-11-07T05:02:14.804Z,1002.16
2018-11-07T05:03:14.784Z,1002.08
2018-11-07T05:04:14.759Z,1002.06
2018-11-07T05:05:14.739Z,1002.03
2018-11-07T05:06:14.719Z,1002.03
2018-11-07T05:07:14.865Z,1002.04
2018-11-07T05:08:14.720Z,1002.05
2018-11-07T05:09:14.654Z,1002.05
2018-11-07T05:10:14.632Z,1002.06
2018-11-07T05:11:14.616Z,1002.06
2018-11-07T05:12:14.592Z,1002.08
2018-11-07T05:13:14.614Z,1002.10
2018-11-07T05:14:14.557Z,1002.15
2018-11-07T05:15:14.532Z,1002.18
2018-11-07T05:16:14.508Z,1002.13
2018-11-07T05:17:14.482Z,1002.13
2018-11-07T05:18:14.461Z,1002.09
2018-11-07T05:19:14.449Z,1002.08
2018-11-07T05:20:14.422Z,1002.09
2018-11-07T05:21:14.400Z,1002.08
2018-11-07T05:22:14.374Z,1002.05
2018-11-07T05:23:14.356Z,1002.04
2018-11-07T05:24:14.337Z,1002.06
2018-11-07T05:25:14.312Z,1002.07
2018-11-07T05:26:14.389Z,1002.03
2018-11-07T05:27:14.272Z,1002.04
2018-11-07T05:28:14.263Z,1002.04
2018-11-07T05:29:14.262Z,1002.08
2018-11-07T05:30:14.206Z,1002.11
2018-11-07T05:31:14.193Z,1002.12
2018-11-07T05:32:14.314Z,1002.09
2018-11-07T05:33:14.142Z,1002.08
2018-11-07T05:34:14.121Z,1002.05
2018-11-07T05:35:14.147Z,1002.06
2018-11-07T05:36:14.076Z,1002.08
2018-11-07T05:37:14.054Z,1002.05
2018-11-07T05:38:14.031Z,1002.07
2018-11-07T05:39:14.011Z,1002.10
2018-11-07T05:40:14.124Z,1002.11
2018-11-07T05:41:14.008Z,1002.09
2018-11-07T05:42:13.952Z,1002.17
2018-11-07T05:43:14.026Z,1002.15
2018-11-07T05:44:13.903Z,1002.18
2018-11-07T05:45:13.882Z,1002.22
2018-11-07T05:46:13.861Z,1002.22
2018-11-07T05:47:13.845Z,1002.21
2018-11-07T05:48:13.822Z,1002.23
2018-11-07T05:49:13.934Z,1002.25
2018-11-07T05:50:13.784Z,1002.25
2018-11-07T05:51:13.754Z,1002.27
2018-11-07T05:52:13.733Z,1002.25
2018-11-07T05:53:13.721Z,1002.22
2018-11-07T05:54:13.704Z,1002.30
2018-11-07T05:55:13.677Z,1002.29
2018-11-07T05:56:13.643Z,1002.28
2018-11-07T05:57:13.623Z,1002.34
2018-11-07T05:58:13.603Z,1002.41
2018-11-07T05:59:13.581Z,1002.47
2018-11-07T06:00:13.568Z,1002.47
2018-11-07T06:01:13.536Z,1002.47
2018-11-07T06:02:13.614Z,1002.52
2018-11-07T06:03:13.495Z,1002.50
2018-11-07T06:04:13.471Z,1002.54
2018-11-07T06:05:13.460Z,1002.55
2018-11-07T06:06:13.429Z,1002.57
2018-11-07T06:07:13.411Z,1002.56
2018-11-07T06:08:13.438Z,1002.56
2018-11-07T06:09:13.372Z,1002.62
2018-11-07T06:10:13.341Z,1002.62
2018-11-07T06:11:13.322Z,1002.66
2018-11-07T06:12:13.301Z,1002.66
2018-11-07T06:13:13.286Z,1002.67
2018-11-07T06:14:13.255Z,1002.68
2018-11-07T06:15:13.240Z,1002.64
2018-11-07T06:16:13.293Z,1002.66
2018-11-07T06:17:13.196Z,1002.63
2018-11-07T06:18:13.171Z,1002.61
2018-11-07T06:19:13.151Z,1002.66
2018-11-07T06:20:13.136Z,1002.67
2018-11-07T06:21:13.108Z,1002.72
2018-11-07T06:22:13.090Z,1002.71
2018-11-07T06:23:13.062Z,1002.65
2018-11-07T06:24:13.146Z,1002.64
2018-11-07T06:25:13.020Z,1002.68
2018-11-07T06:26:13.000Z,1002.67
2018-11-07T06:27:13.003Z,1002.66
2018-11-07T06:28:12.958Z,1002.60
2018-11-07T06:29:12.937Z,1002.61
2018-11-07T06:30:12.918Z,1002.60
2018-11-07T06:31:12.894Z,1002.58
2018-11-07T06:32:12.966Z,1002.59
2018-11-07T06:33:12.857Z,1002.60
2018-11-07T06:34:12.829Z,1002.64
2018-11-07T06:35:12.878Z,1002.63
2018-11-07T06:36:12.787Z,1002.69
2018-11-07T06:37:12.767Z,1002.72
2018-11-07T06:38:12.763Z,1002.73
2018-11-07T06:39:12.726Z,1002.75
2018-11-07T06:40:12.702Z,1002.78
2018-11-07T06:41:12.682Z,1002.82
2018-11-07T06:42:12.677Z,1002.81
2018-11-07T06:43:12.640Z,1002.81
2018-11-07T06:44:12.622Z,1002.77
2018-11-07T06:45:12.598Z,1002.77
2018-11-07T06:46:12.580Z,1002.74
2018-11-07T06:47:12.561Z,1002.71
2018-11-07T06:48:12.541Z,1002.74
2018-11-07T06:49:12.516Z,1002.70
2018-11-07T06:50:12.492Z,1002.67
2018-11-07T06:51:12.482Z,1002.69
2018-11-07T06:52:12.449Z,1002.65
2018-11-07T06:53:12.426Z,1002.65
2018-11-07T06:54:12.425Z,1002.69
2018-11-07T06:55:12.433Z,1002.74
2018-11-07T06:56:12.365Z,1002.74
2018-11-07T06:57:12.434Z,1002.76
2018-11-07T06:58:12.320Z,1002.79
2018-11-07T06:59:12.299Z,1002.79
2018-11-07T07:00:12.332Z,1002.77
2018-11-07T07:01:12.294Z,1002.77
2018-11-07T07:02:12.235Z,1002.73
2018-11-07T07:03:12.214Z,1002.79
2018-11-07T07:04:12.210Z,1002.83
2018-11-07T07:05:12.172Z,1002.85
2018-11-07T07:06:12.156Z,1002.88
2018-11-07T07:07:12.131Z,1002.85
2018-11-07T07:08:12.107Z,1002.87
2018-11-07T07:09:12.094Z,1002.87
2018-11-07T07:10:12.075Z,1002.94
2018-11-07T07:11:12.043Z,1002.91
2018-11-07T07:12:12.023Z,1002.91
2018-11-07T07:13:12.009Z,1002.91
2018-11-07T07:14:11.990Z,1002.89
2018-11-07T07:15:11.965Z,1002.88
2018-11-07T07:16:11.936Z,1002.89
2018-11-07T07:17:11.919Z,1002.85
2018-11-07T07:18:11.971Z,1002.86
2018-11-07T07:19:11.881Z,1002.87
2018-11-07T07:20:11.854Z,1002.83
2018-11-07T07:21:11.838Z,1002.82
2018-11-07T07:22:11.821Z,1002.80
2018-11-07T07:23:11.807Z,1002.80
2018-11-07T07:24:11.773Z,1002.85
2018-11-07T07:25:11.746Z,1002.82
2018-11-07T07:26:11.727Z,1002.86
2018-11-07T07:27:11.748Z,1002.93
2018-11-07T07:28:11.685Z,1002.93
2018-11-07T07:29:11.661Z,1002.91
2018-11-07T07:30:11.765Z,1002.96
2018-11-07T07:31:11.624Z,1002.94
2018-11-07T07:32:11.598Z,1002.94
2018-11-07T07:33:11.753Z,1002.96
2018-11-07T07:34:11.562Z,1002.95
2018-11-07T07:35:11.535Z,1002.96
2018-11-07T07:36:11.516Z,1002.97
2018-11-07T07:37:11.494Z,1002.93
2018-11-07T07:38:11.489Z,1002.93
2018-11-07T07:39:11.452Z,1002.90
2018-11-07T07:40:11.433Z,1002.89
2018-11-07T07:41:11.408Z,1002.92
2018-11-07T07:42:11.395Z,1002.92
2018-11-07T07:43:11.369Z,1002.94
2018-11-07T07:44:11.347Z,1002.93
2018-11-07T07:45:11.324Z,1002.95
2018-11-07T07:46:11.306Z,1002.95
2018-11-07T07:47:11.282Z,1002.98
2018-11-07T07:48:11.263Z,1002.96
2018-11-07T07:49:11.295Z,1002.96
2018-11-07T07:50:11.218Z,1002.95
2018-11-07T07:51:11.197Z,1002.94
2018-11-07T07:52:11.250Z,1002.93
2018-11-07T07:53:11.259Z,1002.94
2018-11-07T07:54:11.133Z,1002.91
2018-11-07T07:55:11.162Z,1002.94
2018-11-07T07:56:11.096Z,1002.90
2018-11-07T07:57:11.072Z,1002.93
2018-11-07T07:58:11.056Z,1002.91
2018-11-07T07:59:11.031Z,1002.93
2018-11-07T08:00:11.011Z,1002.92
2018-11-07T08:01:10.998Z,1002.87
2018-11-07T08:02:10.971Z,1002.87
2018-11-07T08:03:10.950Z,1002.89
2018-11-07T08:04:10.928Z,1002.89
2018-11-07T08:05:10.904Z,1002.90
2018-11-07T08:06:10.882Z,1002.90
2018-11-07T08:07:10.865Z,1002.94
2018-11-07T08:08:10.841Z,1002.92
2018-11-07T08:09:10.821Z,1002.93
2018-11-07T08:10:10.800Z,1002.96
2018-11-07T08:11:10.788Z,1002.94
2018-11-07T08:12:10.766Z,1002.98
2018-11-07T08:13:10.744Z,1003.00
2018-11-07T08:14:10.713Z,1003.03
2018-11-07T08:15:10.704Z,1002.99
2018-11-07T08:16:10.672Z,1003.01
2018-11-07T08:17:10.651Z,1002.97
2018-11-07T08:18:10.629Z,1003.00
2018-11-07T08:19:10.611Z,1002.97
2018-11-07T08:20:10.611Z,1003.01
2018-11-07T08:21:10.612Z,1003.01
2018-11-07T08:22:10.698Z,1003.00
2018-11-07T08:23:10.527Z,1002.99
2018-11-07T08:24:10.505Z,1003.00
2018-11-07T08:25:10.532Z,1002.99
2018-11-07T08:26:10.464Z,1003.01
2018-11-07T08:27:10.461Z,1003.03
2018-11-07T08:28:10.450Z,1003.04
2018-11-07T08:29:10.412Z,1003.06
2018-11-07T08:30:10.378Z,1003.04
2018-11-07T08:31:10.360Z,1002.99
2018-11-07T08:32:10.339Z,1003.01
2018-11-07T08:33:10.319Z,1003.00
2018-11-07T08:34:10.305Z,1002.96
2018-11-07T08:35:10.274Z,1002.98
2018-11-07T08:36:10.265Z,1002.96
2018-11-07T08:37:10.241Z,1003.02
2018-11-07T08:38:10.212Z,1003.02
2018-11-07T08:39:10.190Z,1003.01
2018-11-07T08:40:10.178Z,1003.03
2018-11-07T08:41:10.148Z,1003.02
2018-11-07T08:42:10.196Z,1003.03
2018-11-07T08:43:10.104Z,1003.04
2018-11-07T08:44:10.088Z,1003.07
2018-11-07T08:45:10.071Z,1003.08
2018-11-07T08:46:10.041Z,1003.09
2018-11-07T08:47:10.034Z,1003.07
2018-11-07T08:48:10.057Z,1003.11
2018-11-07T08:49:09.981Z,1003.09
2018-11-07T08:50:09.958Z,1003.10
2018-11-07T08:51:09.944Z,1003.04
2018-11-07T08:52:09.919Z,1003.04
2018-11-07T08:53:09.897Z,1003.04
2018-11-07T08:54:09.878Z,1003.05
2018-11-07T08:55:10.043Z,1003.07
2018-11-07T08:56:09.838Z,1003.07
2018-11-07T08:57:09.812Z,1003.04
2018-11-07T08:58:09.880Z,1003.04
2018-11-07T08:59:09.789Z,1003.07
2018-11-07T09:00:09.780Z,1003.05
2018-11-07T09:01:09.846Z,1003.08
2018-11-07T09:02:09.742Z,1003.05
2018-11-07T09:03:09.698Z,1003.15
2018-11-07T09:04:09.671Z,1003.14
2018-11-07T09:05:09.657Z,1003.09
2018-11-07T09:06:09.626Z,1003.14
2018-11-07T09:07:09.624Z,1003.14
2018-11-07T09:08:09.590Z,1003.15
2018-11-07T09:09:09.566Z,1003.17
2018-11-07T09:10:09.544Z,1003.18
2018-11-07T09:11:09.521Z,1003.15
2018-11-07T09:12:09.595Z,1003.17
2018-11-07T09:13:09.482Z,1003.17
2018-11-07T09:14:09.459Z,1003.18
2018-11-07T09:15:09.453Z,1003.13
2018-11-07T09:16:09.422Z,1003.17
2018-11-07T09:17:09.398Z,1003.14
2018-11-07T09:18:09.390Z,1003.17
2018-11-07T09:19:09.356Z,1003.18
2018-11-07T09:20:09.340Z,1003.26
2018-11-07T09:21:09.325Z,1003.29
2018-11-07T09:22:09.295Z,1003.24
2018-11-07T09:23:09.288Z,1003.23
2018-11-07T09:24:09.257Z,1003.28
2018-11-07T09:25:09.245Z,1003.33
2018-11-07T09:26:09.228Z,1003.38
2018-11-07T09:27:09.204Z,1003.41
2018-11-07T09:28:09.182Z,1003.46
2018-11-07T09:29:09.256Z,1003.39
2018-11-07T09:30:09.143Z,1003.35
2018-11-07T09:31:09.124Z,1003.34
2018-11-07T09:32:09.104Z,1003.34
2018-11-07T09:33:09.091Z,1003.33
2018-11-07T09:34:09.067Z,1003.25
2018-11-07T09:35:09.060Z,1003.27
2018-11-07T09:36:09.033Z,1003.32
2018-11-07T09:37:09.065Z,1003.29
2018-11-07T09:38:09.001Z,1003.27
2018-11-07T09:39:08.978Z,1003.21
2018-11-07T09:40:09.015Z,1003.22
2018-11-07T09:41:08.941Z,1003.25
2018-11-07T09:42:08.925Z,1003.24
2018-11-07T09:43:08.931Z,1003.26
2018-11-07T09:44:08.900Z,1003.24
2018-11-07T09:45:08.870Z,1003.18
2018-11-07T09:46:08.867Z,1003.22
2018-11-07T09:47:08.848Z,1003.19
2018-11-07T09:48:08.839Z,1003.23
2018-11-07T09:49:08.810Z,1003.25
2018-11-07T09:50:08.790Z,1003.20
2018-11-07T09:51:08.772Z,1003.20
2018-11-07T09:52:08.761Z,1003.22
2018-11-07T09:53:08.746Z,1003.21
2018-11-07T09:54:08.761Z,1003.22
2018-11-07T09:55:08.715Z,1003.22
2018-11-07T09:56:08.704Z,1003.20
2018-11-07T09:57:08.686Z,1003.22
2018-11-07T09:58:08.655Z,1003.21
2018-11-07T09:59:08.792Z,1003.17
2018-11-07T10:00:08.631Z,1003.18
2018-11-07T10:01:08.605Z,1003.13
2018-11-07T10:02:08.595Z,1003.14
2018-11-07T10:03:08.577Z,1003.11
2018-11-07T10:04:08.574Z,1003.17
2018-11-07T10:05:08.543Z,1003.20
2018-11-07T10:06:08.531Z,1003.16
2018-11-07T10:07:08.517Z,1003.18
2018-11-07T10:08:08.495Z,1003.21
2018-11-07T10:09:08.480Z,1003.23
2018-11-07T10:10:08.579Z,1003.24
2018-11-07T10:11:08.453Z,1003.20
2018-11-07T10:12:08.431Z,1003.25
2018-11-07T10:13:08.415Z,1003.24
2018-11-07T10:14:08.407Z,1003.26
2018-11-07T10:15:08.382Z,1003.27
2018-11-07T10:16:08.375Z,1003.27
2018-11-07T10:17:08.350Z,1003.29
2018-11-07T10:18:08.335Z,1003.26
2018-11-07T10:19:08.321Z,1003.20
2018-11-07T10:20:08.305Z,1003.25
2018-11-07T10:21:08.294Z,1003.26
2018-11-07T10:22:08.275Z,1003.20
2018-11-07T10:23:08.399Z,1003.24
2018-11-07T10:24:08.244Z,1003.20
2018-11-07T10:25:08.234Z,1003.16
2018-11-07T10:26:08.299Z,1003.15
2018-11-07T10:27:08.323Z,1003.16
2018-11-07T10:28:08.709Z,1003.20
2018-11-07T10:29:08.335Z,1003.19
2018-11-07T10:30:08.569Z,1003.16
2018-11-07T10:31:08.145Z,1003.13
2018-11-07T10:32:08.121Z,1003.10
2018-11-07T10:33:08.107Z,1003.12
2018-11-07T10:34:08.087Z,1003.11
2018-11-07T10:35:08.073Z,1003.06
2018-11-07T10:36:08.064Z,1003.08
2018-11-07T10:37:08.044Z,1003.09
2018-11-07T10:38:08.226Z,1003.10
2018-11-07T10:39:08.021Z,1003.13
2018-11-07T10:40:07.993Z,1003.11
2018-11-07T10:41:07.982Z,1003.07
2018-11-07T10:42:07.997Z,1003.11
2018-11-07T10:43:07.963Z,1003.13
2018-11-07T10:44:07.937Z,1003.18
2018-11-07T10:45:07.918Z,1003.12
2018-11-07T10:46:08.021Z,1003.14
2018-11-07T10:47:07.888Z,1003.10
2018-11-07T10:48:07.879Z,1003.10
2018-11-07T10:49:07.851Z,1003.08
2018-11-07T10:50:07.838Z,1003.06
2018-11-07T10:51:07.829Z,1003.05
2018-11-07T10:52:07.805Z,1003.05
2018-11-07T10:53:07.792Z,1003.07
2018-11-07T10:54:07.771Z,1003.07
2018-11-07T10:55:07.763Z,1003.07
2018-11-07T10:56:07.745Z,1003.04
2018-11-07T10:57:07.729Z,1003.06
2018-11-07T10:58:07.711Z,1003.08
2018-11-07T10:59:07.697Z,1003.05
2018-11-07T11:00:07.682Z,1003.01
2018-11-07T11:01:07.664Z,1003.06
2018-11-07T11:02:07.649Z,1003.03
2018-11-07T11:03:07.651Z,1003.04
2018-11-07T11:04:07.622Z,1003.00
2018-11-07T11:05:07.650Z,1003.01
2018-11-07T11:06:07.592Z,1002.98
2018-11-07T11:07:07.605Z,1002.96
2018-11-07T11:08:07.564Z,1003.00
2018-11-07T11:09:07.543Z,1002.98
2018-11-07T11:10:07.518Z,1002.98
2018-11-07T11:11:07.525Z,1003.00
2018-11-07T11:12:07.526Z,1003.00
2018-11-07T11:13:07.479Z,1002.94
2018-11-07T11:14:07.464Z,1003.01
2018-11-07T11:15:07.480Z,1003.04
2018-11-07T11:16:07.434Z,1002.97
2018-11-07T11:17:07.469Z,1002.95
2018-11-07T11:18:07.444Z,1002.96
2018-11-07T11:19:07.376Z,1002.91
2018-11-07T11:20:07.367Z,1003.00
2018-11-07T11:21:07.361Z,1003.00
2018-11-07T11:22:07.338Z,1003.00
2018-11-07T11:23:07.313Z,1002.97
2018-11-07T11:24:07.302Z,1002.95
2018-11-07T11:25:07.279Z,1002.97
2018-11-07T11:26:07.271Z,1002.96
2018-11-07T11:27:07.278Z,1002.99
2018-11-07T11:28:07.239Z,1002.95
2018-11-07T11:29:07.219Z,1002.95
2018-11-07T11:30:07.202Z,1002.93
2018-11-07T11:31:07.186Z,1002.95
2018-11-07T11:32:07.176Z,1002.91
2018-11-07T11:33:07.151Z,1002.96
2018-11-07T11:34:07.373Z,1002.90
2018-11-07T11:35:07.413Z,1002.91
2018-11-07T11:36:07.114Z,1002.93
2018-11-07T11:37:07.113Z,1002.94
2018-11-07T11:38:07.071Z,1002.94
2018-11-07T11:39:07.059Z,1003.05
2018-11-07T11:40:07.039Z,1003.10
2018-11-07T11:41:07.181Z,1003.03
2018-11-07T11:42:07.085Z,1002.94
2018-11-07T11:43:06.998Z,1002.94
2018-11-07T11:44:06.984Z,1002.93
2018-11-07T11:45:06.961Z,1002.92
2018-11-07T11:46:06.948Z,1002.92
2018-11-07T11:47:06.924Z,1002.92
2018-11-07T11:48:06.909Z,1002.91
2018-11-07T11:49:06.927Z,1002.91
2018-11-07T11:50:06.878Z,1002.98
2018-11-07T11:51:06.869Z,1002.96
2018-11-07T11:52:06.842Z,1002.99
2018-11-07T11:53:06.828Z,1003.01
2018-11-07T11:54:06.816Z,1002.97
2018-11-07T11:55:06.804Z,1002.95
2018-11-07T11:56:06.784Z,1002.96
2018-11-07T11:57:06.773Z,1002.89
2018-11-07T11:58:06.749Z,1002.95
2018-11-07T11:59:06.860Z,1002.94
2018-11-07T12:00:07.177Z,1002.93
2018-11-07T12:01:06.775Z,1002.92
2018-11-07T12:02:06.757Z,1002.96
2018-11-07T12:03:06.676Z,1002.89
2018-11-07T12:04:06.684Z,1002.87
2018-11-07T12:05:06.640Z,1002.88